Time;durP1;ratioP1;P1;durP2;ratioP2;P2;SDS_P1;SDS_P2;PMS_P1;PMS_P2;Temp;Humidity;BMP_temperature;BMP_pressure;BME280_temperature;BME280_humidity;BME280_pressure;Samples;Min_cycle;Max_cycle;Signal;HPM_P1;HPM_P2
2022/02/13 00:01:13;;;;;;;11.20;6.57;;;;;;;2.04;67.61;101894.41;5017037;28;20030;-73
2022/02/13 00:03:38;;;;;;;17.25;7.15;;;;;;;2.03;67.79;101890.94;5013779;28;20037;-74
2022/02/13 00:06:04;;;;;;;10.02;6.05;;;;;;;2.03;67.80;101883.13;5013659;28;20149;-73
2022/02/13 00:08:29;;;;;;;14.50;6.43;;;;;;;2.05;67.39;101883.16;5008334;28;20043;-74
2022/02/13 00:10:54;;;;;;;11.82;6.60;;;;;;;2.06;68.01;101879.72;5021915;28;20029;-72
2022/02/13 00:13:20;;;;;;;14.10;6.85;;;;;;;2.02;68.12;101877.03;5026502;28;20045;-72
2022/02/13 00:15:45;;;;;;;11.50;6.32;;;;;;;1.99;68.29;101871.78;5014128;28;20052;-73
2022/02/13 00:18:10;;;;;;;13.05;6.53;;;;;;;2.05;68.10;101864.97;5008661;28;20562;-74
2022/02/13 00:20:36;;;;;;;12.85;6.78;;;;;;;2.01;68.44;101858.81;5018448;28;20026;-72
2022/02/13 00:23:01;;;;;;;16.83;6.80;;;;;;;2.04;68.51;101847.63;5029158;28;20233;-73
2022/02/13 00:25:27;;;;;;;11.30;6.07;;;;;;;2.05;68.39;101844.16;5015274;28;20021;-74
2022/02/13 00:27:52;;;;;;;10.20;6.00;;;;;;;2.05;68.36;101836.38;5023834;28;20025;-73
2022/02/13 00:30:17;;;;;;;13.07;6.38;;;;;;;2.08;68.35;101831.22;5022071;28;20061;-74
2022/02/13 00:32:43;;;;;;;15.23;5.93;;;;;;;2.11;68.20;101824.31;5027941;28;20495;-73
2022/02/13 00:35:10;;;;;;;13.68;6.82;;;;;;;2.11;68.29;101813.94;5021960;28;20022;-73
2022/02/13 00:37:35;;;;;;;13.77;6.07;;;;;;;2.13;68.40;101819.16;5018345;28;20042;-73
2022/02/13 00:40:01;;;;;;;20.70;7.43;;;;;;;2.11;68.19;101808.72;5025502;28;20033;-73
2022/02/13 00:42:26;;;;;;;14.57;6.68;;;;;;;2.09;68.30;101802.66;5018431;28;20032;-73
2022/02/13 00:44:51;;;;;;;13.05;5.70;;;;;;;2.13;68.25;101795.75;5021056;28;20409;-73
2022/02/13 00:47:17;;;;;;;14.68;6.60;;;;;;;2.13;68.50;101788.84;5014415;28;20030;-73
2022/02/13 00:49:42;;;;;;;20.63;7.13;;;;;;;2.11;68.59;101789.66;5008253;28;20705;-73
2022/02/13 00:52:07;;;;;;;13.60;6.95;;;;;;;2.12;68.78;101791.41;5013219;28;20029;-74
2022/02/13 00:54:33;;;;;;;11.45;6.20;;;;;;;2.13;68.62;101774.94;5022087;28;20022;-72
2022/02/13 00:57:02;;;;;;;14.25;6.63;;;;;;;2.18;68.45;101782.84;5014908;28;20111;-73
2022/02/13 00:59:28;;;;;;;14.80;6.97;;;;;;;2.18;68.82;101775.91;5015025;28;20026;-75
2022/02/13 01:01:53;;;;;;;14.70;6.82;;;;;;;2.21;68.67;101780.28;5015759;28;20021;-73
2022/02/13 01:04:19;;;;;;;10.00;6.25;;;;;;;2.25;68.64;101780.34;5007694;28;20036;-75
2022/02/13 01:06:45;;;;;;;12.88;6.10;;;;;;;2.30;68.65;101776.94;5015853;28;20026;-71
2022/02/13 01:09:10;;;;;;;14.20;6.88;;;;;;;2.24;68.90;101765.63;5016439;28;20383;-74
2022/02/13 01:11:36;;;;;;;13.32;6.13;;;;;;;2.28;68.87;101756.13;5007935;28;20026;-73
2022/02/13 01:14:01;;;;;;;18.10;6.43;;;;;;;2.30;68.69;101756.16;5024996;28;20041;-74
2022/02/13 01:16:27;;;;;;;12.20;6.55;;;;;;;2.32;68.62;101751.84;5019809;28;20029;-73
2022/02/13 01:18:53;;;;;;;14.10;6.15;;;;;;;2.32;68.63;101741.44;5011167;28;20030;-75
2022/02/13 01:21:18;;;;;;;17.13;6.80;;;;;;;2.36;68.43;101740.63;5011119;28;20456;-73
2022/02/13 01:23:44;;;;;;;13.48;6.88;;;;;;;2.22;68.84;101735.22;5023753;28;20021;-73
2022/02/13 01:26:10;;;;;;;15.65;6.75;;;;;;;2.20;68.75;101727.38;5020118;28;20125;-72
2022/02/13 01:28:36;;;;;;;11.68;5.90;;;;;;;2.27;68.60;101721.47;5013893;28;20033;-74
2022/02/13 01:31:02;;;;;;;11.70;6.32;;;;;;;2.38;68.25;101733.75;5006874;28;20075;-74
2022/02/13 01:33:30;;;;;;;12.65;6.20;;;;;;;2.46;67.95;101752.94;5022767;28;20057;-73
2022/02/13 01:35:57;;;;;;;14.80;6.37;;;;;;;2.47;67.87;101751.22;5021485;28;20034;-74
2022/02/13 01:38:22;;;;;;;11.68;5.88;;;;;;;2.39;68.07;101743.28;5020105;28;20022;-73
2022/02/13 01:40:48;;;;;;;10.63;5.88;;;;;;;2.34;68.02;101742.31;5020794;28;20045;-72
2022/02/13 01:43:13;;;;;;;10.65;6.15;;;;;;;2.37;67.96;101738.06;5015144;28;20037;-74
2022/02/13 01:45:38;;;;;;;14.23;6.35;;;;;;;2.31;68.08;101735.38;5017932;28;20033;-71
2022/02/13 01:48:08;;;;;;;13.63;6.22;;;;;;;2.27;68.31;101733.56;5006022;28;20041;-72
2022/02/13 01:50:33;;;;;;;;;;;;;;;2.21;68.45;101716.16;5005549;28;20121;-71
2022/02/13 01:52:58;;;;;;;15.13;6.28;;;;;;;2.17;68.66;101713.47;5006295;28;20012;-72
2022/02/13 01:55:24;;;;;;;18.45;6.88;;;;;;;2.09;68.75;101710.75;5021263;28;20132;-70
2022/02/13 01:57:49;;;;;;;13.05;5.97;;;;;;;2.08;68.88;101698.63;5007986;28;20022;-72
2022/02/13 02:00:14;;;;;;;11.52;6.40;;;;;;;2.06;68.76;101693.41;5010935;28;20034;-68
2022/02/13 02:02:40;;;;;;;16.13;6.30;;;;;;;2.04;68.84;101702.03;5016709;28;20101;-71
2022/02/13 02:05:05;;;;;;;12.15;6.28;;;;;;;2.00;68.86;101701.97;5041214;23;20083;-74
2022/02/13 02:07:31;;;;;;;13.77;6.03;;;;;;;2.02;68.83;101692.47;5038833;28;20029;-75
2022/02/13 02:09:57;;;;;;;10.57;6.28;;;;;;;2.05;68.70;101699.44;5029247;28;20036;-74
2022/02/13 02:12:22;;;;;;;9.43;5.88;;;;;;;1.98;68.92;101694.97;5024343;28;20116;-76
2022/02/13 02:14:47;;;;;;;13.88;6.22;;;;;;;2.00;68.96;101693.28;5027134;28;20036;-74
2022/02/13 02:17:13;;;;;;;12.63;6.20;;;;;;;1.95;69.02;101690.63;5044500;28;20115;-74
2022/02/13 02:19:38;;;;;;;10.80;5.93;;;;;;;1.94;69.17;101688.88;5045553;28;20020;-75
2022/02/13 02:22:08;;;;;;;9.48;5.88;;;;;;;1.90;69.28;101687.09;5044021;28;20343;-70
2022/02/13 02:24:33;;;;;;;11.02;6.20;;;;;;;1.88;69.05;101686.16;5048884;28;20025;-72
2022/02/13 02:27:00;;;;;;;10.20;5.88;;;;;;;1.86;69.33;101680.94;5034706;28;20382;-73
2022/02/13 02:29:25;;;;;;;13.25;6.03;;;;;;;1.88;69.25;101676.66;5044781;28;20017;-72
2022/02/13 02:31:50;;;;;;;13.48;5.90;;;;;;;1.85;69.36;101666.22;5045222;28;20025;-73
2022/02/13 02:34:16;;;;;;;12.10;6.18;;;;;;;1.83;69.23;101662.72;5044928;28;20021;-71
2022/02/13 02:36:41;;;;;;;13.02;6.25;;;;;;;1.78;69.72;101653.97;5042090;28;20025;-73
2022/02/13 02:39:06;;;;;;;16.88;6.75;;;;;;;1.75;69.74;101643.53;5044131;28;20071;-75
2022/02/13 02:41:32;;;;;;;8.70;5.78;;;;;;;1.73;69.74;101640.03;5035537;28;20037;-74
2022/02/13 02:43:58;;;;;;;14.07;6.07;;;;;;;1.73;69.58;101640.91;5024099;28;20029;-73
2022/02/13 02:46:23;;;;;;;10.85;6.07;;;;;;;1.74;69.67;101642.66;5038706;28;20025;-73
2022/02/13 02:48:48;;;;;;;10.35;5.80;;;;;;;1.73;69.62;101635.72;5041701;28;20025;-73
2022/02/13 02:51:14;;;;;;;11.93;6.63;;;;;;;1.72;69.76;101628.75;5045701;28;20098;-72
2022/02/13 02:53:39;;;;;;;9.98;5.60;;;;;;;1.70;69.75;101627.88;5044335;28;20043;-72
2022/02/13 02:56:05;;;;;;;14.85;6.35;;;;;;;1.65;69.83;101616.50;5035914;28;20415;-72
2022/02/13 02:58:30;;;;;;;16.17;6.28;;;;;;;1.64;69.81;101604.38;5038660;28;20063;-74
2022/02/13 03:00:56;;;;;;;10.82;5.93;;;;;;;1.59;70.13;101600.81;5037856;28;20029;-72
2022/02/13 03:03:22;;;;;;;12.27;6.65;;;;;;;1.56;70.40;101600.81;5023770;28;20025;-73
2022/02/13 03:05:51;;;;;;;14.63;5.95;;;;;;;1.54;70.50;101597.28;5034757;28;20137;-73
2022/02/13 03:08:17;;;;;;;11.82;6.45;;;;;;;1.55;70.50;101578.25;5034101;28;20117;-73
2022/02/13 03:10:44;;;;;;;13.93;6.65;;;;;;;1.55;70.42;101573.06;5024692;28;20084;-72
2022/02/13 03:13:12;;;;;;;10.52;5.95;;;;;;;1.53;70.37;101577.38;5025857;28;20650;-72
2022/02/13 03:15:37;;;;;;;16.35;6.97;;;;;;;1.49;70.60;101572.13;5024632;28;20014;-73
2022/02/13 03:18:03;;;;;;;15.52;6.75;;;;;;;1.52;70.65;101566.09;5039319;28;20487;-72
2022/02/13 03:20:28;;;;;;;15.30;6.30;;;;;;;1.53;70.47;101556.59;5044178;28;20028;-74
2022/02/13 03:22:54;;;;;;;10.10;6.40;;;;;;;1.53;70.23;101556.59;5042725;28;20489;-72
2022/02/13 03:25:19;;;;;;;10.57;6.18;;;;;;;1.54;70.37;101555.72;5033260;28;20024;-71
2022/02/13 03:27:44;;;;;;;10.77;5.90;;;;;;;1.58;70.28;101560.13;5032506;28;20047;-72
2022/02/13 03:30:10;;;;;;;12.18;6.40;;;;;;;1.57;70.19;101550.59;5031187;28;20314;-72
2022/02/13 03:32:35;;;;;;;19.73;7.35;;;;;;;1.56;70.37;101549.69;5029016;28;20029;-73
2022/02/13 03:35:01;;;;;;;12.48;7.20;;;;;;;1.57;70.07;101545.38;5028165;28;20022;-71
2022/02/13 03:37:26;;;;;;;15.68;6.88;;;;;;;1.54;70.39;101545.34;5030249;28;20029;-72
2022/02/13 03:39:52;;;;;;;16.20;6.60;;;;;;;1.49;70.50;101535.75;5043148;28;20064;-71
2022/02/13 03:42:17;;;;;;;12.02;6.93;;;;;;;1.46;70.67;101530.50;5039309;28;20471;-71
2022/02/13 03:44:42;;;;;;;13.85;6.10;;;;;;;1.45;70.67;101528.78;5032961;28;20598;-74
2022/02/13 03:47:08;;;;;;;13.68;6.70;;;;;;;1.44;70.61;101518.38;5047317;28;20032;-73
2022/02/13 03:49:33;;;;;;;10.52;6.22;;;;;;;1.45;70.71;101523.59;5040049;28;20033;-73
2022/02/13 03:51:58;;;;;;;14.38;6.45;;;;;;;1.44;70.75;101529.59;5027971;28;20100;-73
2022/02/13 03:54:24;;;;;;;12.13;6.05;;;;;;;1.43;70.70;101535.66;5031059;28;20546;-72
2022/02/13 03:56:49;;;;;;;10.23;6.30;;;;;;;1.45;70.58;101523.59;5027308;28;20413;-72
2022/02/13 03:59:14;;;;;;;13.23;7.10;;;;;;;1.45;70.66;101526.19;5042141;28;20021;-67
2022/02/13 04:01:40;;;;;;;20.13;6.97;;;;;;;1.40;70.89;101527.81;5048217;28;20072;-72
2022/02/13 04:04:06;;;;;;;14.05;6.38;;;;;;;1.36;70.91;101531.22;5043582;28;20033;-72
2022/02/13 04:06:31;;;;;;;10.65;6.53;;;;;;;1.36;71.08;101536.41;5038419;28;20071;-72
2022/02/13 04:08:56;;;;;;;16.85;6.85;;;;;;;1.35;70.93;101545.03;5048560;28;20549;-72
2022/02/13 04:11:22;;;;;;;13.80;6.60;;;;;;;1.33;71.18;101538.97;5041222;28;20127;-72
2022/02/13 04:13:47;;;;;;;12.73;6.72;;;;;;;1.33;71.12;101525.97;5035018;28;20080;-72
2022/02/13 04:16:12;;;;;;;13.93;6.63;;;;;;;1.30;71.18;101532.00;5047684;28;20036;-73
2022/02/13 04:18:37;;;;;;;9.80;6.35;;;;;;;1.30;71.19;101531.13;5028873;28;20032;-73
2022/02/13 04:21:03;;;;;;;15.60;6.28;;;;;;;1.31;71.17;101538.94;5034947;28;20061;-72
2022/02/13 04:23:29;;;;;;;13.35;6.50;;;;;;;1.31;71.23;101533.75;5034091;28;20040;-71
2022/02/13 04:25:55;;;;;;;12.60;6.57;;;;;;;1.30;71.24;101539.78;5041726;28;20017;-71
2022/02/13 04:28:20;;;;;;;9.30;5.43;;;;;;;1.33;71.23;101536.38;5027872;28;20036;-71
2022/02/13 04:30:46;;;;;;;16.98;7.10;;;;;;;1.34;71.15;101533.78;5027124;28;20029;-72
2022/02/13 04:33:11;;;;;;;16.35;7.15;;;;;;;1.38;70.96;101534.69;5035573;28;20026;-68
2022/02/13 04:35:36;;;;;;;12.68;6.47;;;;;;;1.40;70.81;101527.81;5047800;28;20029;-73
2022/02/13 04:38:02;;;;;;;12.75;6.07;;;;;;;1.42;70.96;101530.44;5047317;28;20086;-70
2022/02/13 04:40:28;;;;;;;12.18;6.78;;;;;;;1.45;70.91;101527.88;5045436;28;20253;-72
2022/02/13 04:42:53;;;;;;;10.00;6.13;;;;;;;1.39;71.01;101519.16;5044421;28;20017;-73
2022/02/13 04:45:18;;;;;;;13.38;7.00;;;;;;;1.46;70.87;101521.84;5032852;28;20033;-72
2022/02/13 04:47:44;;;;;;;10.18;6.45;;;;;;;1.48;70.83;101521.00;5031187;28;20034;-72
2022/02/13 04:50:10;;;;;;;13.00;6.63;;;;;;;1.49;70.87;101517.56;5028080;28;20096;-72
2022/02/13 04:52:36;;;;;;;14.52;6.57;;;;;;;1.49;70.80;101496.78;5030209;28;20095;-72
2022/02/13 04:55:02;;;;;;;7.85;5.60;;;;;;;1.47;70.92;101501.09;5031773;28;20034;-73
2022/02/13 04:57:28;;;;;;;9.65;5.80;;;;;;;1.50;70.96;101505.44;5026299;28;20037;-72
2022/02/13 04:59:53;;;;;;;9.82;5.70;;;;;;;1.51;71.08;101509.81;5027355;28;20026;-70
2022/02/13 05:02:19;;;;;;;10.85;6.32;;;;;;;1.51;70.81;101517.59;5032626;28;20025;-72
2022/02/13 05:04:45;;;;;;;9.20;5.97;;;;;;;1.50;71.03;101508.03;5031425;28;20045;-73
2022/02/13 05:07:10;;;;;;;8.88;5.88;;;;;;;1.49;71.24;101507.19;5040230;28;20475;-72
2022/02/13 05:09:36;;;;;;;12.80;5.97;;;;;;;1.51;71.14;101495.06;5034874;28;20036;-72
2022/02/13 05:12:01;;;;;;;13.75;6.55;;;;;;;1.41;71.44;101488.00;5041872;28;20423;-72
2022/02/13 05:14:27;;;;;;;10.30;6.38;;;;;;;1.44;71.40;101475.06;5042363;28;20024;-72
2022/02/13 05:16:52;;;;;;;12.73;6.57;;;;;;;1.50;71.34;101469.06;5046998;28;20091;-74
2022/02/13 05:19:17;;;;;;;9.18;5.65;;;;;;;1.52;71.15;101462.19;5045666;28;20370;-72
2022/02/13 05:21:43;;;;;;;11.05;6.13;;;;;;;1.60;70.94;101457.09;5047239;28;20485;-73
2022/02/13 05:24:09;;;;;;;9.18;5.78;;;;;;;1.65;70.88;101455.44;5046596;28;20021;-72
2022/02/13 05:26:34;;;;;;;11.80;5.68;;;;;;;1.71;70.68;101444.22;5045727;28;20123;-72
2022/02/13 05:28:59;;;;;;;10.98;5.95;;;;;;;1.71;70.53;101450.31;5043706;28;20035;-72
2022/02/13 05:31:29;;;;;;;11.57;5.82;;;;;;;1.76;69.98;101452.97;5046076;28;20063;-71
2022/02/13 05:33:58;;;;;;;13.32;6.18;;;;;;;1.83;70.14;101446.13;5046073;28;20021;-71
2022/02/13 05:36:24;;;;;;;13.90;5.97;;;;;;;1.84;70.08;101442.69;5043928;28;20048;-72
2022/02/13 05:38:49;;;;;;;8.85;5.70;;;;;;;1.92;69.89;101442.78;5046393;28;20096;-71
2022/02/13 05:41:14;;;;;;;8.65;5.55;;;;;;;1.96;69.43;101444.56;5041254;28;20029;-71
2022/02/13 05:43:40;;;;;;;11.02;5.80;;;;;;;2.00;69.51;101430.72;5045588;28;20074;-71
2022/02/13 05:46:05;;;;;;;10.63;5.75;;;;;;;2.06;69.24;101432.53;5046461;28;20021;-72
2022/02/13 05:48:31;;;;;;;11.48;5.97;;;;;;;2.09;69.19;101425.66;5045835;28;20032;-72
2022/02/13 05:50:57;;;;;;;9.20;5.38;;;;;;;2.14;69.08;101428.28;5035431;28;20142;-72
2022/02/13 05:53:22;;;;;;;10.52;5.32;;;;;;;2.13;69.12;101429.13;5037870;28;20483;-72
2022/02/13 05:55:47;;;;;;;10.68;5.50;;;;;;;2.17;69.02;101417.06;5044944;28;20044;-72
2022/02/13 05:58:13;;;;;;;12.80;5.95;;;;;;;2.20;68.92;101411.88;5046210;28;20149;-72
2022/02/13 06:00:38;;;;;;;8.98;5.00;;;;;;;2.26;68.40;101418.00;5044770;28;20406;-71
2022/02/13 06:03:04;;;;;;;9.43;5.25;;;;;;;2.31;68.33;101414.56;5044013;28;20128;-70
2022/02/13 06:05:29;;;;;;;10.00;5.68;;;;;;;2.31;68.34;101414.56;5046066;28;20048;-72
2022/02/13 06:07:54;;;;;;;7.60;5.35;;;;;;;2.38;67.89;101413.78;5045872;28;20037;-71
2022/02/13 06:10:20;;;;;;;12.20;5.28;;;;;;;2.38;68.01;101404.25;5035210;28;20372;-72
2022/02/13 06:12:47;;;;;;;11.75;5.55;;;;;;;2.42;67.86;101406.88;5041505;28;20647;-71
2022/02/13 06:15:13;;;;;;;9.60;5.47;;;;;;;2.41;67.97;101406.03;5049801;28;20033;-72
2022/02/13 06:17:38;;;;;;;11.52;5.40;;;;;;;2.46;67.91;101403.44;5045813;28;20021;-72
2022/02/13 06:20:04;;;;;;;7.97;5.20;;;;;;;2.44;68.31;101397.38;5045813;28;20409;-72
2022/02/13 06:22:30;;;;;;;10.93;5.25;;;;;;;2.42;68.26;101393.88;5045334;28;20033;-72
2022/02/13 06:24:55;;;;;;;9.52;5.15;;;;;;;2.43;67.96;101398.22;5042620;28;20571;-72
2022/02/13 06:27:21;;;;;;;10.38;5.43;;;;;;;2.45;68.07;101386.09;5045888;28;20039;-72
2022/02/13 06:29:47;;;;;;;9.85;6.05;;;;;;;2.42;68.44;101386.06;5044650;28;20032;-72
2022/02/13 06:32:12;;;;;;;8.02;5.72;;;;;;;2.45;68.20;101371.38;5043068;28;20037;-73
2022/02/13 06:34:38;;;;;;;9.93;5.93;;;;;;;2.42;68.49;101373.94;5044138;28;20029;-71
2022/02/13 06:37:03;;;;;;;9.57;5.53;;;;;;;2.43;68.58;101378.28;5043794;28;20764;-72
2022/02/13 06:39:29;;;;;;;9.40;6.38;;;;;;;2.43;68.63;101383.47;5040674;28;20040;-72
2022/02/13 06:41:54;;;;;;;7.63;5.15;;;;;;;2.45;68.32;101375.69;5034947;28;20032;-72
2022/02/13 06:44:19;;;;;;;12.13;5.43;;;;;;;2.42;68.73;101380.88;5040150;28;20078;-72
2022/02/13 06:46:45;;;;;;;11.02;5.78;;;;;;;2.39;68.82;101374.78;5037002;28;20091;-69
2022/02/13 06:49:10;;;;;;;12.65;6.75;;;;;;;2.33;69.00;101372.13;5043576;28;20108;-73
2022/02/13 06:51:35;;;;;;;13.48;6.97;;;;;;;2.27;69.71;101369.47;5044505;28;20041;-72
2022/02/13 06:54:01;;;;;;;10.70;6.13;;;;;;;2.27;69.62;101370.34;5040608;28;20747;-72
2022/02/13 06:56:26;;;;;;;9.43;5.88;;;;;;;2.30;69.78;101376.44;5044101;28;20084;-71
2022/02/13 06:58:51;;;;;;;11.27;5.65;;;;;;;2.29;69.80;101379.88;5043913;28;20033;-72
2022/02/13 07:01:17;;;;;;;13.95;6.63;;;;;;;2.25;69.70;101376.38;5044484;28;20043;-72
2022/02/13 07:03:42;;;;;;;14.30;6.13;;;;;;;2.17;70.01;101365.94;5045315;28;20028;-71
2022/02/13 07:06:07;;;;;;;10.38;6.32;;;;;;;2.14;70.08;101368.50;5043839;28;20131;-71
2022/02/13 07:08:33;;;;;;;9.75;6.32;;;;;;;2.21;69.99;101372.91;5045032;28;20036;-71
2022/02/13 07:10:59;;;;;;;12.73;6.32;;;;;;;2.16;70.41;101377.16;5037291;28;20063;-71
2022/02/13 07:13:24;;;;;;;14.25;6.70;;;;;;;2.17;70.10;101371.13;5043044;28;20025;-70
2022/02/13 07:15:50;;;;;;;15.38;6.95;;;;;;;2.11;70.87;101368.47;5045022;28;20559;-70
2022/02/13 07:18:15;;;;;;;9.93;6.28;;;;;;;2.13;70.59;101364.13;5044928;28;20112;-71
2022/02/13 07:20:41;;;;;;;9.10;6.07;;;;;;;2.12;70.71;101367.59;5043621;28;20183;-71
2022/02/13 07:23:06;;;;;;;12.63;6.57;;;;;;;2.05;71.07;101366.69;5043841;28;20032;-70
2022/02/13 07:25:31;;;;;;;9.68;5.70;;;;;;;2.07;71.07;101364.94;5044137;28;20058;-71
2022/02/13 07:27:57;;;;;;;10.85;6.22;;;;;;;2.12;70.64;101358.06;5043042;28;20108;-71
2022/02/13 07:30:22;;;;;;;10.15;6.78;;;;;;;2.11;70.79;101366.72;5045388;28;20091;-72
2022/02/13 07:32:47;;;;;;;10.35;6.20;;;;;;;2.11;70.95;101366.72;5044359;28;20029;-71
2022/02/13 07:35:14;;;;;;;11.35;6.90;;;;;;;2.17;70.32;101376.31;5042792;28;20380;-73
2022/02/13 07:37:39;;;;;;;12.50;6.68;;;;;;;2.17;70.30;101371.13;5044681;28;20025;-72
2022/02/13 07:40:05;;;;;;;15.90;6.15;;;;;;;2.22;70.32;101372.03;5043480;28;20029;-72
2022/02/13 07:42:31;;;;;;;18.70;8.07;;;;;;;2.27;70.23;101364.28;5044120;28;20048;-70
2022/02/13 07:44:56;;;;;;;12.45;6.40;;;;;;;2.29;69.89;101359.97;5044845;28;20052;-66
2022/02/13 07:47:22;;;;;;;14.32;7.30;;;;;;;2.24;70.10;101357.31;5043394;28;20029;-66
2022/02/13 07:49:47;;;;;;;11.23;6.38;;;;;;;2.29;70.12;101348.69;5041658;28;20119;-66
2022/02/13 07:52:13;;;;;;;12.10;6.68;;;;;;;2.29;70.22;101343.47;5043474;28;20115;-65
2022/02/13 07:54:39;;;;;;;13.73;6.78;;;;;;;2.38;69.89;101330.56;5038767;28;20032;-66
2022/02/13 07:57:05;;;;;;;12.40;6.50;;;;;;;2.43;69.48;101336.66;5043589;28;20033;-67
2022/02/13 07:59:30;;;;;;;10.45;6.25;;;;;;;2.43;69.29;101336.66;5042203;28;20017;-67
2022/02/13 08:01:56;;;;;;;13.23;6.65;;;;;;;2.42;69.48;101334.94;5046264;28;20072;-69
2022/02/13 08:04:22;;;;;;;12.23;6.35;;;;;;;2.44;70.08;101337.53;5045715;28;20032;-67
2022/02/13 08:06:47;;;;;;;10.48;6.28;;;;;;;2.56;69.07;101341.97;5043420;28;20132;-64
2022/02/13 08:09:13;;;;;;;15.85;6.65;;;;;;;2.56;68.69;101337.63;5043265;28;20025;-63
2022/02/13 08:11:39;;;;;;;8.02;5.47;;;;;;;2.67;68.85;101324.69;5042557;28;20017;-66
2022/02/13 08:14:04;;;;;;;11.38;6.35;;;;;;;2.73;68.61;101319.53;5035277;28;20125;-66
2022/02/13 08:16:30;;;;;;;12.32;6.57;;;;;;;2.70;68.56;101323.84;5041971;28;20025;-66
2022/02/13 08:18:55;;;;;;;13.13;6.32;;;;;;;2.70;68.43;101316.03;5044076;28;20092;-66
2022/02/13 08:21:20;;;;;;;14.57;6.40;;;;;;;2.84;68.10;101309.19;5046760;28;20017;-67
2022/02/13 08:23:46;;;;;;;14.40;5.97;;;;;;;2.92;67.98;101314.41;5046973;28;20033;-66
2022/02/13 08:26:12;;;;;;;14.60;6.00;;;;;;;2.96;68.16;101315.31;5045549;28;20017;-65
2022/02/13 08:28:37;;;;;;;12.57;5.90;;;;;;;3.01;67.83;101314.47;5046326;28;20387;-65
2022/02/13 08:31:03;;;;;;;8.60;6.05;;;;;;;3.03;67.60;101299.75;5047034;28;20075;-69
2022/02/13 08:33:28;;;;;;;9.80;6.10;;;;;;;3.12;67.51;101300.63;5047717;28;20017;-69
2022/02/13 08:35:54;;;;;;;11.93;6.07;;;;;;;3.21;67.60;101305.91;5045602;28;20102;-68
2022/02/13 08:38:19;;;;;;;11.48;5.82;;;;;;;3.32;67.37;101287.72;5047655;28;20096;-68
2022/02/13 08:40:44;;;;;;;11.23;6.07;;;;;;;3.38;66.93;101290.34;5047128;28;20032;-67
2022/02/13 08:43:10;;;;;;;10.68;6.47;;;;;;;3.38;66.96;101292.06;5045931;28;20075;-69
2022/02/13 08:45:37;;;;;;;10.27;5.18;;;;;;;3.40;67.04;101290.31;5047562;28;20025;-68
2022/02/13 08:48:02;;;;;;;14.25;6.50;;;;;;;3.53;66.62;101284.28;5045963;28;20067;-61
2022/02/13 08:50:28;;;;;;;10.38;5.90;;;;;;;3.57;66.67;101281.69;5045225;28;20020;-69
2022/02/13 08:52:53;;;;;;;8.80;5.82;;;;;;;3.60;66.25;101274.75;5044610;28;20025;-72
2022/02/13 08:55:20;;;;;;;14.88;5.85;;;;;;;3.70;66.10;101278.25;5045892;28;20471;-71
2022/02/13 08:57:46;;;;;;;12.32;6.20;;;;;;;3.73;65.86;101259.16;5045030;28;20021;-68
2022/02/13 09:00:13;;;;;;;11.02;6.15;;;;;;;3.77;65.61;101273.94;5046237;28;20033;-69
2022/02/13 09:02:39;;;;;;;11.80;6.18;;;;;;;3.84;65.39;101267.84;5045737;28;20399;-67
2022/02/13 09:05:07;;;;;;;11.18;5.70;;;;;;;3.86;65.40;101257.44;5046270;28;20504;-66
2022/02/13 09:07:36;;;;;;;10.38;6.18;;;;;;;3.83;65.49;101255.69;5040508;28;20029;-66
2022/02/13 09:10:13;;;;;;;12.05;6.32;;;;;;;3.87;65.38;101254.81;5027468;28;20064;-71
2022/02/13 09:12:38;;;;;;;13.93;6.25;;;;;;;3.90;65.42;101259.16;5039121;28;20021;-71
2022/02/13 09:15:05;;;;;;;8.98;5.35;;;;;;;4.02;65.32;101251.34;5040115;28;20231;-71
2022/02/13 09:17:30;;;;;;;9.07;5.60;;;;;;;4.20;64.42;101249.59;5046813;28;20024;-70
2022/02/13 09:19:56;;;;;;;9.98;6.00;;;;;;;4.23;64.68;101247.00;5047080;28;20536;-71
2022/02/13 09:22:21;;;;;;;10.93;5.75;;;;;;;4.29;64.54;101241.78;5046397;28;20025;-71
2022/02/13 09:24:47;;;;;;;11.35;5.60;;;;;;;4.41;63.78;101235.66;5044436;28;20124;-74
2022/02/13 09:27:12;;;;;;;10.52;5.43;;;;;;;4.52;63.46;101221.72;5046885;28;20027;-71
2022/02/13 09:29:37;;;;;;;11.45;5.15;;;;;;;4.64;63.55;101223.44;5038004;28;20040;-73
2022/02/13 09:32:03;;;;;;;12.60;5.53;;;;;;;4.62;63.41;101222.56;5046771;28;20025;-72
2022/02/13 09:34:29;;;;;;;8.93;5.20;;;;;;;4.78;62.99;101202.47;5039029;28;20080;-73
2022/02/13 09:36:55;;;;;;;10.30;6.20;;;;;;;4.75;63.01;101198.16;5039691;28;20203;-73
2022/02/13 09:39:22;;;;;;;13.07;5.63;;;;;;;4.70;62.78;101183.38;5044674;28;20025;-71
2022/02/13 09:41:49;;;;;;;8.45;5.53;;;;;;;4.71;63.05;101201.66;5044635;28;20025;-72
2022/02/13 09:44:14;;;;;;;11.07;5.57;;;;;;;4.62;63.38;101184.28;5041732;28;20102;-65
2022/02/13 09:46:41;;;;;;;10.05;5.70;;;;;;;4.57;63.47;101203.44;5046215;28;20025;-71
2022/02/13 09:49:06;;;;;;;13.60;5.50;;;;;;;4.59;63.77;101201.69;5044462;28;20056;-74
2022/02/13 09:51:33;;;;;;;8.65;5.03;;;;;;;4.62;63.68;101199.06;5045331;28;20052;-69
2022/02/13 09:53:58;;;;;;;7.45;5.18;;;;;;;4.72;63.65;101202.53;5045572;28;20021;-73
2022/02/13 09:56:24;;;;;;;7.97;4.78;;;;;;;4.75;63.40;101184.22;5045086;28;20021;-72
2022/02/13 09:58:49;;;;;;;11.38;5.10;;;;;;;4.73;63.26;101192.06;5043120;28;20518;-73
2022/02/13 10:01:15;;;;;;;10.00;5.57;;;;;;;4.71;63.24;101186.00;5045151;28;20380;-77
2022/02/13 10:03:42;;;;;;;8.25;4.55;;;;;;;4.79;63.21;101184.19;5044439;28;20037;-76
2022/02/13 10:06:19;;;;;;;7.32;5.00;;;;;;;4.75;63.78;101192.94;5043806;28;20037;-75
2022/02/13 10:08:50;;;;;;;10.02;4.88;;;;;;;4.78;63.54;101182.47;5044242;28;20040;-76
2022/02/13 10:11:18;;;;;;;10.18;5.25;;;;;;;4.87;63.53;101175.47;5045574;28;20040;-71
2022/02/13 10:13:48;;;;;;;8.48;5.38;;;;;;;4.88;64.00;101187.66;5041095;28;20490;-67
2022/02/13 10:16:27;;;;;;;10.25;5.03;;;;;;;4.98;63.22;101178.91;5041292;28;20078;-69
2022/02/13 10:18:54;;;;;;;9.52;5.03;;;;;;;5.01;63.09;101173.69;5044467;28;20093;-71
2022/02/13 10:21:38;;;;;;;10.85;4.75;;;;;;;5.05;63.28;101169.28;5045173;28;20021;-72
2022/02/13 10:24:28;;;;;;;9.25;4.82;;;;;;;5.14;63.27;101168.34;5042826;28;20060;-72
2022/02/13 10:26:57;;;;;;;9.15;4.85;;;;;;;5.21;63.63;101164.81;5038008;28;20021;-69
2022/02/13 10:29:27;;;;;;;7.35;4.55;;;;;;;5.29;63.16;101168.28;5033502;28;20037;-66
2022/02/13 10:32:09;;;;;;;9.93;5.68;;;;;;;5.31;63.06;101171.75;5045062;28;20059;-71
2022/02/13 10:34:34;;;;;;;9.02;4.13;;;;;;;5.35;62.42;101161.25;5038854;28;20503;-68
2022/02/13 10:36:59;;;;;;;8.98;4.30;;;;;;;5.46;62.20;101163.81;5043958;28;20059;-70
2022/02/13 10:39:26;;;;;;;6.07;3.92;;;;;;;5.52;62.50;101167.25;5039977;28;20107;-65
2022/02/13 10:41:52;;;;;;;9.60;4.75;;;;;;;5.59;62.58;101151.50;5044652;28;20057;-71
2022/02/13 10:44:24;;;;;;;8.32;4.28;;;;;;;5.71;60.92;101158.38;5040793;28;21013;-67
2022/02/13 10:46:50;;;;;;;9.75;5.38;;;;;;;5.62;60.96;101144.50;5044721;28;20120;-65
2022/02/13 10:49:15;;;;;;;9.18;4.68;;;;;;;5.71;60.47;101140.06;5043361;28;20171;-67
2022/02/13 10:51:41;;;;;;;10.00;4.85;;;;;;;5.74;60.19;101142.66;5041385;28;20086;-67
2022/02/13 10:54:07;;;;;;;12.63;4.82;;;;;;;5.82;60.03;101133.88;5041544;28;20067;-64
2022/02/13 10:56:35;;;;;;;10.05;4.40;;;;;;;5.71;59.09;101135.72;5042295;28;20503;-63
2022/02/13 10:59:01;;;;;;;7.45;4.20;;;;;;;5.82;59.24;101128.63;5044160;28;20067;-69
2022/02/13 11:01:27;;;;;;;8.05;4.63;;;;;;;5.90;58.79;101127.72;5043482;28;20057;-70
2022/02/13 11:04:03;;;;;;;6.90;4.30;;;;;;;6.02;58.64;101122.34;5043060;28;20028;-69
2022/02/13 11:06:30;;;;;;;7.13;3.80;;;;;;;6.15;57.83;101127.50;5042356;28;20043;-74
2022/02/13 11:09:04;;;;;;;7.15;4.40;;;;;;;6.32;57.41;101119.44;5042120;28;20017;-72
2022/02/13 11:11:30;;;;;;;6.43;5.00;;;;;;;6.46;56.65;101121.91;5041957;28;20091;-76
2022/02/13 11:13:56;;;;;;;7.57;4.15;;;;;;;6.62;55.85;101093.75;5043699;28;20025;-72
2022/02/13 11:16:32;;;;;;;8.27;4.57;;;;;;;6.79;56.09;101092.69;5043583;28;20037;-71
2022/02/13 11:19:01;;;;;;;6.55;4.07;;;;;;;7.03;55.57;101096.69;5038421;28;20028;-71
2022/02/13 11:21:29;;;;;;;7.13;4.32;;;;;;;7.00;54.82;101096.75;5042663;28;20106;-70